Terminal Aerodrome Forecast
Issued by NWS Jackson, MS

Home | Current Version | Previous Version | Text Only | Print | Product List | Glossary On
Versions: 1 2 3 4 5 6 7 8 9 10 11 12
000
FTUS44 KMEG 271123
TAFTUP
TAF
KTUP 271123Z 2712/2812 17007KT P6SM VCSH FEW040 BKN100
     FM271600 20010G16KT P6SM SCT040 BKN250
     FM280000 17006KT P6SM VCSH SCT040 BKN150=

USA.gov is the U.S. government's official web portal to all federal, state and local government web resources and services.